Time;durP1;ratioP1;P1;durP2;ratioP2;P2;SDS_P1;SDS_P2;PMS_P1;PMS_P2;Temp;Humidity;BMP_temperature;BMP_pressure;BME280_temperature;BME280_humidity;BME280_pressure;Samples;Min_cycle;Max_cycle;Signal;HPM_P1;HPM_P2
2021/09/27 00:01:28;;;;;;;20.03;18.07;;;;;;;18.33;86.93;101652.53;4986444;28;20553;-78
2021/09/27 00:03:54;;;;;;;18.17;16.33;;;;;;;18.34;86.59;101663.78;4968236;28;20188;-78
2021/09/27 00:06:19;;;;;;;16.37;14.87;;;;;;;18.31;86.77;101661.16;4982044;28;20185;-81
2021/09/27 00:08:45;;;;;;;19.33;17.43;;;;;;;18.28;87.50;101658.59;4986701;28;20263;-79
2021/09/27 00:11:18;;;;;;;18.03;16.33;;;;;;;18.27;87.37;101651.63;4989854;28;20258;-78
2021/09/27 00:13:47;;;;;;;18.87;16.87;;;;;;;18.26;87.23;101657.69;4974024;28;20195;-79
2021/09/27 00:16:14;;;;;;;19.63;17.70;;;;;;;18.27;87.03;101655.09;4963789;28;20217;-78
2021/09/27 00:18:40;;;;;;;17.63;16.10;;;;;;;18.23;87.30;101647.34;4983222;28;20192;-80
2021/09/27 00:21:09;;;;;;;19.23;17.20;;;;;;;18.22;87.48;101655.97;4976242;28;20227;-80
2021/09/27 00:23:35;;;;;;;17.33;15.53;;;;;;;18.24;87.03;101643.88;4976194;28;20208;-80
2021/09/27 00:26:03;;;;;;;17.80;16.10;;;;;;;18.22;87.17;101637.81;4974917;28;20292;-79
2021/09/27 00:28:28;;;;;;;18.10;16.30;;;;;;;18.21;87.15;101623.13;4985232;28;20203;-80
2021/09/27 00:30:54;;;;;;;20.23;18.13;;;;;;;18.19;87.46;101623.09;4976256;28;20276;-82
2021/09/27 00:33:21;;;;;;;19.83;17.83;;;;;;;18.19;87.30;101624.84;4955992;28;20248;-79
2021/09/27 00:35:47;;;;;;;20.97;18.73;;;;;;;18.16;87.83;101622.25;4984143;28;20212;-79
2021/09/27 00:38:12;;;;;;;19.70;17.90;;;;;;;18.14;87.50;101617.06;4975784;28;20383;-79
2021/09/27 00:41:03;;;;;;;21.07;17.47;;;;;;;18.17;87.18;101614.47;5014093;28;20826;-81
2021/09/27 00:43:30;;;;;;;22.20;19.53;;;;;;;18.16;87.84;101606.69;4974536;28;20677;-79
2021/09/27 00:45:59;;;;;;;23.67;19.60;;;;;;;18.14;87.63;101605.84;4972497;28;20184;-80
2021/09/27 00:48:26;;;;;;;20.57;18.40;;;;;;;18.15;87.58;101604.97;4996829;28;20752;-79
2021/09/27 00:50:56;;;;;;;19.80;17.90;;;;;;;18.13;87.60;101612.75;4982503;28;20681;-79
2021/09/27 00:53:26;;;;;;;20.23;18.20;;;;;;;18.13;87.67;101601.50;4974642;28;20246;-79
2021/09/27 00:55:54;;;;;;;19.23;17.23;;;;;;;18.09;87.54;101600.63;4983175;28;20195;-79
2021/09/27 00:58:21;;;;;;;20.83;18.80;;;;;;;18.07;87.84;101599.78;4976570;28;20545;-79
2021/09/27 01:00:47;;;;;;;19.27;17.33;;;;;;;18.09;86.99;101599.75;4986465;28;20211;-79
2021/09/27 01:03:13;;;;;;;23.80;19.60;;;;;;;18.09;87.48;101595.44;4989725;28;20728;-81
2021/09/27 01:05:48;;;;;;;22.50;19.63;;;;;;;18.07;87.73;101593.72;4979046;28;20200;-79
2021/09/27 01:08:37;;;;;;;22.43;20.03;;;;;;;18.07;87.59;101596.31;4958163;28;20201;-78
2021/09/27 01:11:11;;;;;;;22.70;20.07;;;;;;;18.09;87.20;101595.44;5007539;28;20544;-78
2021/09/27 01:14:06;;;;;;;24.40;20.27;;;;;;;18.08;87.47;101588.53;4985651;28;20187;-80
2021/09/27 01:17:12;;;;;;;22.10;19.13;;;;;;;18.04;87.91;101591.13;4976512;28;20354;-80
2021/09/27 01:19:49;;;;;;;24.30;20.10;;;;;;;18.05;87.56;101583.34;4978925;28;20218;-79
2021/09/27 01:22:40;;;;;;;22.70;19.17;;;;;;;18.04;87.58;101584.22;4996126;28;20638;-79
2021/09/27 01:25:08;;;;;;;21.30;18.63;;;;;;;18.05;87.39;101585.94;4976631;28;20192;-80
2021/09/27 01:27:52;;;;;;;20.97;18.87;;;;;;;18.05;87.28;101580.75;4991160;28;20199;-79
2021/09/27 01:30:27;;;;;;;22.77;20.40;;;;;;;18.02;88.05;101569.53;4979702;28;20670;-80
2021/09/27 01:32:56;;;;;;;26.77;22.13;;;;;;;18.01;88.15;101568.66;4980943;28;20212;-80
2021/09/27 01:35:46;;;;;;;24.50;22.07;;;;;;;18.02;87.99;101575.59;4996675;28;20227;-79
2021/09/27 01:38:23;;;;;;;24.87;22.27;;;;;;;18.01;87.93;101570.41;4975156;28;20218;-79
2021/09/27 01:41:01;;;;;;;22.47;20.27;;;;;;;18.01;87.81;101573.00;4976193;28;20202;-79
2021/09/27 01:43:37;;;;;;;24.93;22.43;;;;;;;18.02;88.03;101587.66;4974396;28;20196;-80
2021/09/27 01:46:29;;;;;;;24.77;21.37;;;;;;;18.00;88.04;101579.88;4979759;28;20194;-78
2021/09/27 01:49:07;;;;;;;22.67;20.33;;;;;;;18.01;87.57;101580.75;4973217;28;20189;-80
2021/09/27 01:52:12;;;;;;;23.30;20.93;;;;;;;17.98;88.11;101585.94;5004789;28;20212;-82
2021/09/27 01:54:51;;;;;;;23.60;21.17;;;;;;;17.93;88.20;101598.91;4980269;28;20220;-79
2021/09/27 01:57:38;;;;;;;27.33;24.40;;;;;;;17.84;88.97;101627.38;4973786;28;20216;-80
2021/09/27 02:00:11;;;;;;;33.90;27.80;;;;;;;17.75;89.92;101613.53;4963959;28;20605;-78
2021/09/27 02:02:59;;;;;;;28.63;25.53;;;;;;;17.81;89.40;101617.00;4973359;28;20216;-79
2021/09/27 02:05:44;;;;;;;27.90;24.97;;;;;;;17.87;88.55;101616.16;4962472;28;20187;-82
2021/09/27 02:08:16;;;;;;;24.97;22.27;;;;;;;17.90;87.54;101617.03;4969916;28;20188;-79
2021/09/27 02:11:34;;;;;;;26.73;23.93;;;;;;;17.81;88.72;101632.56;4989848;28;20205;-77
2021/09/27 02:14:17;;;;;;;28.03;23.60;;;;;;;17.80;89.23;101654.16;4946823;28;20203;-81
2021/09/27 02:17:09;;;;;;;27.53;24.43;;;;;;;17.81;88.64;101642.03;4960484;28;20244;-79
2021/09/27 02:19:50;;;;;;;27.77;24.80;;;;;;;17.78;88.41;101622.16;4994375;28;20208;-78
2021/09/27 02:22:21;;;;;;;27.97;24.10;;;;;;;17.79;88.64;101636.00;4980536;28;20259;-81
2021/09/27 02:24:56;;;;;;;31.60;26.60;;;;;;;17.73;89.33;101647.19;4965462;28;20670;-78
2021/09/27 02:27:22;;;;;;;28.97;25.53;;;;;;;17.74;89.39;101642.91;4996768;28;20233;-81
2021/09/27 02:29:48;;;;;;;30.90;25.20;;;;;;;17.78;88.68;101634.28;4981139;28;20204;-77
2021/09/27 02:32:38;;;;;;;27.07;24.23;;;;;;;17.82;88.63;101636.03;4987964;28;20251;-79
2021/09/27 02:35:21;;;;;;;26.83;24.03;;;;;;;17.80;88.69;101646.38;4996896;28;20673;-78
2021/09/27 02:38:09;;;;;;;29.83;24.17;;;;;;;17.77;88.46;101645.50;4994146;28;20693;-79
2021/09/27 02:40:46;;;;;;;27.20;22.53;;;;;;;17.79;88.77;101648.97;5003283;28;20199;-78
2021/09/27 02:43:12;;;;;;;27.17;23.87;;;;;;;17.80;88.65;101648.97;4988406;28;20287;-79
2021/09/27 02:45:40;;;;;;;27.10;24.23;;;;;;;17.82;88.46;101647.22;4995949;28;20199;-78
2021/09/27 02:48:28;;;;;;;25.60;22.83;;;;;;;17.80;88.80;101640.31;4964405;28;20228;-80
2021/09/27 02:50:55;;;;;;;26.93;24.03;;;;;;;17.82;88.54;101638.63;4959798;28;20178;-79
2021/09/27 02:53:21;;;;;;;27.83;23.60;;;;;;;17.80;88.71;101641.19;4990078;28;20857;-79
2021/09/27 02:56:17;;;;;;;28.77;24.23;;;;;;;17.81;88.63;101642.91;4958204;28;20193;-79
2021/09/27 02:59:22;;;;;;;25.57;22.80;;;;;;;17.83;88.37;101642.94;4966318;28;20192;-81
2021/09/27 03:02:02;;;;;;;24.03;21.33;;;;;;;17.84;88.50;101645.53;4973149;28;20295;-79
2021/09/27 03:05:01;;;;;;;30.03;23.50;;;;;;;17.80;89.00;101661.06;4968245;28;20200;-78
2021/09/27 03:07:48;;;;;;;26.50;22.17;;;;;;;17.81;88.55;101653.28;4956132;28;20186;-77
2021/09/27 03:10:28;;;;;;;28.60;23.67;;;;;;;17.80;88.88;101663.63;4956846;28;20196;-79
2021/09/27 03:13:23;;;;;;;28.67;24.13;;;;;;;17.77;89.26;101656.72;4988090;28;20205;-78
2021/09/27 03:16:16;;;;;;;26.37;23.37;;;;;;;17.78;89.19;101658.44;4955610;29;20227;-80
2021/09/27 03:19:02;;;;;;;25.60;22.80;;;;;;;17.78;88.99;101645.50;4998178;28;20282;-81
2021/09/27 03:21:57;;;;;;;28.70;22.17;;;;;;;17.78;89.04;101644.66;4974218;28;20694;-80
2021/09/27 03:24:35;;;;;;;24.50;21.93;;;;;;;17.80;89.33;101659.34;4948833;28;20245;-79
2021/09/27 03:27:08;;;;;;;25.70;22.07;;;;;;;17.80;89.36;101653.28;4996167;28;20187;-80
2021/09/27 03:29:50;;;;;;;25.67;22.53;;;;;;;17.79;89.30;101651.56;4996733;28;20334;-80
2021/09/27 03:32:34;;;;;;;23.67;20.97;;;;;;;17.75;89.74;101639.44;4996572;28;20820;-78
2021/09/27 03:35:18;;;;;;;25.00;22.30;;;;;;;17.79;89.39;101629.09;4969945;28;20197;-78
2021/09/27 03:38:21;;;;;;;26.57;22.60;;;;;;;17.75;90.07;101636.84;4976218;28;20220;-80
2021/09/27 03:41:19;;;;;;;25.37;21.97;;;;;;;17.74;89.95;101635.97;4955207;29;20201;-78
2021/09/27 03:44:20;;;;;;;24.97;22.27;;;;;;;17.75;89.62;101629.97;4988547;28;20683;-80
2021/09/27 03:47:17;;;;;;;26.77;22.47;;;;;;;17.75;89.66;101626.50;4972374;28;20188;-78
2021/09/27 03:50:08;;;;;;;25.80;21.43;;;;;;;17.75;89.45;101636.84;4956094;28;20205;-80
2021/09/27 03:52:52;;;;;;;26.17;22.73;;;;;;;17.73;89.38;101636.00;4972332;28;20217;-79
2021/09/27 03:55:29;;;;;;;25.73;22.93;;;;;;;17.75;88.98;101642.91;4956753;28;20647;-78
2021/09/27 03:58:01;;;;;;;27.07;22.50;;;;;;;17.76;89.28;101647.22;4956012;29;20246;-78
2021/09/27 04:00:35;;;;;;;25.53;22.87;;;;;;;17.75;89.47;101635.13;4956071;28;20329;-79
2021/09/27 04:03:19;;;;;;;25.37;22.67;;;;;;;17.75;89.13;101636.84;4956020;28;20213;-78
2021/09/27 04:05:57;;;;;;;26.63;23.40;;;;;;;17.75;89.04;101632.53;4956718;29;20185;-79
2021/09/27 04:08:33;;;;;;;30.47;23.40;;;;;;;17.75;89.24;101624.78;4987942;28;20197;-79
2021/09/27 04:11:26;;;;;;;26.10;23.30;;;;;;;17.74;89.11;101619.59;4959281;28;20181;-79
2021/09/27 04:14:18;;;;;;;29.10;24.60;;;;;;;17.73;89.00;101607.50;4941216;28;20201;-80
2021/09/27 04:16:58;;;;;;;25.67;22.87;;;;;;;17.71;89.17;101602.31;4955039;28;20209;-80
2021/09/27 04:19:47;;;;;;;28.37;23.20;;;;;;;17.71;89.06;101601.44;4971111;28;20200;-79
2021/09/27 04:22:14;;;;;;;25.87;21.57;;;;;;;17.70;88.70;101597.13;4971780;28;20573;-78
2021/09/27 04:25:05;;;;;;;25.27;21.70;;;;;;;17.71;88.85;101601.44;4988290;28;20291;-78
2021/09/27 04:27:56;;;;;;;26.13;22.57;;;;;;;17.70;88.80;101598.00;4956728;29;20204;-79
2021/09/27 04:30:36;;;;;;;26.07;23.37;;;;;;;17.70;88.74;101602.28;4957233;28;20205;-80
2021/09/27 04:33:13;;;;;;;25.97;23.17;;;;;;;17.67;88.60;101597.09;4972077;28;20217;-79
2021/09/27 04:35:44;;;;;;;26.63;23.83;;;;;;;17.64;89.10;101599.69;4971455;28;20550;-80
2021/09/27 04:38:12;;;;;;;28.30;24.10;;;;;;;17.59;89.32;101604.84;4969311;28;20204;-78
2021/09/27 04:41:05;;;;;;;26.83;24.03;;;;;;;17.58;89.44;101610.00;5011287;28;20196;-77
2021/09/27 04:43:36;;;;;;;27.43;24.40;;;;;;;17.61;89.30;101612.63;4993509;28;20627;-81
2021/09/27 04:46:13;;;;;;;28.63;25.50;;;;;;;17.59;89.78;101607.44;4969907;28;20674;-78
2021/09/27 04:49:04;;;;;;;26.53;23.83;;;;;;;17.58;90.09;101608.31;4956116;28;20184;-79
2021/09/27 04:51:51;;;;;;;31.20;26.17;;;;;;;17.56;89.91;101599.69;4987297;28;20213;-78
2021/09/27 04:54:45;;;;;;;26.33;22.73;;;;;;;17.58;89.49;101597.94;4955219;29;20182;-79
2021/09/27 04:57:25;;;;;;;26.30;23.00;;;;;;;17.58;89.34;101595.34;4961728;28;20224;-78
2021/09/27 05:00:09;;;;;;;26.90;22.57;;;;;;;17.61;89.33;101594.50;4952281;29;20242;-77
2021/09/27 05:02:56;;;;;;;25.30;22.37;;;;;;;17.63;89.25;101603.13;4954032;28;20237;-79
2021/09/27 05:05:50;;;;;;;26.43;23.53;;;;;;;17.62;89.13;101598.81;4984761;28;20189;-80
2021/09/27 05:08:47;;;;;;;26.67;23.87;;;;;;;17.62;88.84;101596.22;4969618;28;20192;-78
2021/09/27 05:11:15;;;;;;;29.63;23.93;;;;;;;17.60;89.66;101588.44;4988918;28;20228;-79
2021/09/27 05:14:17;;;;;;;26.00;23.20;;;;;;;17.57;89.51;101592.75;4973784;28;20243;-80
2021/09/27 05:16:54;;;;;;;27.30;23.83;;;;;;;17.57;89.76;101588.44;4974253;28;20210;-80
2021/09/27 05:19:31;;;;;;;25.63;23.03;;;;;;;17.57;89.42;101590.16;4974823;28;20610;-79
2021/09/27 05:22:30;;;;;;;28.83;25.80;;;;;;;17.56;89.56;101591.91;4954606;28;20772;-79
2021/09/27 05:25:13;;;;;;;27.53;24.73;;;;;;;17.58;89.38;101585.00;4987070;28;20305;-79
2021/09/27 05:28:03;;;;;;;29.07;24.93;;;;;;;17.58;89.51;101584.13;4954372;28;20606;-79
2021/09/27 05:30:51;;;;;;;29.63;26.27;;;;;;;17.57;89.65;101588.44;4956437;29;20205;-79
2021/09/27 05:33:36;;;;;;;28.80;25.33;;;;;;;17.59;89.29;101586.72;4955614;28;20578;-79
2021/09/27 05:36:40;;;;;;;29.20;25.90;;;;;;;17.62;89.51;101585.84;4986714;28;20197;-80
2021/09/27 05:39:31;;;;;;;30.97;26.57;;;;;;;17.63;89.11;101580.69;4974822;28;20724;-80
2021/09/27 05:42:05;;;;;;;29.23;26.00;;;;;;;17.64;89.13;101589.34;4974569;28;20208;-80
2021/09/27 05:44:39;;;;;;;30.47;27.17;;;;;;;17.66;89.10;101585.88;4957373;28;20195;-77
2021/09/27 05:47:31;;;;;;;30.43;27.03;;;;;;;17.64;89.51;101590.19;4974034;28;20212;-79
2021/09/27 05:50:15;;;;;;;31.73;27.13;;;;;;;17.68;89.43;101586.75;4974416;28;20192;-79
2021/09/27 05:53:16;;;;;;;31.70;27.53;;;;;;;17.71;89.21;101580.69;4957793;28;20208;-79
2021/09/27 05:55:51;;;;;;;31.43;27.83;;;;;;;17.72;89.42;101585.88;4941041;28;20284;-78
2021/09/27 05:58:29;;;;;;;27.83;25.03;;;;;;;17.74;88.81;101578.13;4956114;28;20217;-80
2021/09/27 06:01:07;;;;;;;27.53;24.70;;;;;;;17.76;88.89;101578.97;4986902;28;20189;-80
2021/09/27 06:03:41;;;;;;;26.30;23.50;;;;;;;17.77;88.61;101567.78;4970444;28;20212;-78
2021/09/27 06:06:30;;;;;;;29.03;25.40;;;;;;;17.75;89.07;101562.59;4954922;29;20212;-79
2021/09/27 06:09:11;;;;;;;28.93;25.00;;;;;;;17.75;89.49;101565.19;4954641;28;20190;-78
2021/09/27 06:11:54;;;;;;;31.20;27.90;;;;;;;17.74;89.47;101560.84;4962852;28;20220;-77
2021/09/27 06:14:20;;;;;;;29.80;26.57;;;;;;;17.76;89.13;101569.50;4957987;28;20184;-78
2021/09/27 06:17:23;;;;;;;30.03;25.93;;;;;;;17.77;89.29;101566.03;4975047;28;20646;-80
2021/09/27 06:20:12;;;;;;;27.20;24.30;;;;;;;17.78;89.04;101561.72;4975152;28;20198;-79
2021/09/27 06:22:53;;;;;;;28.03;25.17;;;;;;;17.78;89.40;101569.50;4975439;28;20211;-78
2021/09/27 06:26:06;;;;;;;28.63;24.50;;;;;;;17.79;89.20;101569.50;4975117;28;20657;-79
2021/09/27 06:28:49;;;;;;;28.33;24.73;;;;;;;17.81;88.82;101569.47;4966071;28;20670;-78
2021/09/27 06:31:18;;;;;;;27.57;23.60;;;;;;;17.77;89.04;101566.03;4955198;28;20659;-78
2021/09/27 06:33:43;;;;;;;30.40;25.10;;;;;;;17.78;88.75;101567.75;4955623;28;20655;-79
2021/09/27 06:36:14;;;;;;;27.93;24.50;;;;;;;17.80;88.93;101560.88;4987064;28;20204;-80
2021/09/27 06:38:40;;;;;;;27.37;24.30;;;;;;;17.80;88.86;101555.69;4981500;28;20191;-79
2021/09/27 06:41:16;;;;;;;26.33;23.60;;;;;;;17.81;89.14;101561.72;4984172;28;20180;-80
2021/09/27 06:43:41;;;;;;;28.97;25.40;;;;;;;17.79;89.29;101564.31;4992813;28;20275;-79
2021/09/27 06:46:07;;;;;;;33.50;27.37;;;;;;;17.76;89.53;101574.69;4966566;28;20753;-80
2021/09/27 06:48:34;;;;;;;30.13;27.00;;;;;;;17.76;89.67;101572.09;4952841;28;20696;-80
2021/09/27 06:50:59;;;;;;;33.27;28.50;;;;;;;17.71;90.16;101584.16;4985356;28;20321;-78
2021/09/27 06:53:25;;;;;;;34.10;28.13;;;;;;;17.72;90.29;101585.00;4958883;28;20962;-82
2021/09/27 06:55:51;;;;;;;30.37;27.13;;;;;;;17.75;89.90;101585.03;4958073;28;20189;-79
2021/09/27 06:58:16;;;;;;;32.97;28.33;;;;;;;17.75;89.65;101579.84;4955515;28;20248;-78
2021/09/27 07:00:42;;;;;;;28.57;25.50;;;;;;;17.78;89.56;101574.69;4956442;28;20945;-77
2021/09/27 07:03:07;;;;;;;30.70;27.40;;;;;;;17.82;89.34;101576.41;4972224;28;20225;-79
2021/09/27 07:05:32;;;;;;;31.73;26.30;;;;;;;17.84;89.35;101567.78;4956609;28;20192;-78
2021/09/27 07:08:00;;;;;;;33.70;29.17;;;;;;;17.87;89.09;101580.72;4957498;28;20276;-77
2021/09/27 07:10:27;;;;;;;32.40;28.83;;;;;;;17.86;89.45;101583.31;5005260;28;20189;-79
2021/09/27 07:12:52;;;;;;;31.97;28.30;;;;;;;17.85;89.77;101581.59;4978928;28;20267;-79
2021/09/27 07:15:18;;;;;;;32.83;28.13;;;;;;;17.88;89.67;101584.19;4974142;28;20197;-79
2021/09/27 07:17:43;;;;;;;34.17;29.00;;;;;;;17.90;89.70;101582.47;4997921;28;20286;-78
2021/09/27 07:20:18;;;;;;;33.13;28.97;;;;;;;17.92;89.72;101586.78;4987157;28;20246;-78
2021/09/27 07:22:44;;;;;;;32.77;28.33;;;;;;;17.95;89.60;101591.09;4986596;28;20212;-79
2021/09/27 07:25:12;;;;;;;31.03;27.83;;;;;;;17.96;89.60;101588.53;4990123;28;20198;-81
2021/09/27 07:27:37;;;;;;;32.23;28.83;;;;;;;17.99;89.64;101583.34;4975951;28;20187;-78
2021/09/27 07:30:05;;;;;;;33.07;28.70;;;;;;;17.99;89.61;101587.66;4987529;28;20192;-79
2021/09/27 07:32:30;;;;;;;32.80;29.23;;;;;;;18.00;89.74;101587.66;4994526;28;20282;-77
2021/09/27 07:34:56;;;;;;;31.63;28.33;;;;;;;18.02;89.73;101579.91;4986936;28;20242;-81
2021/09/27 07:37:21;;;;;;;32.67;29.27;;;;;;;18.06;89.63;101582.47;4983439;28;20804;-79
2021/09/27 07:39:46;;;;;;;30.67;27.47;;;;;;;18.08;89.56;101587.66;4978570;28;20266;-79
2021/09/27 07:42:12;;;;;;;32.03;28.60;;;;;;;18.08;89.92;101593.72;4978063;28;20696;-79
2021/09/27 07:44:37;;;;;;;33.90;29.50;;;;;;;18.13;89.64;101579.03;4984481;28;20709;-79
2021/09/27 07:47:04;;;;;;;35.07;29.17;;;;;;;18.17;89.72;101580.78;5003955;28;20189;-78
2021/09/27 07:49:30;;;;;;;32.03;28.63;;;;;;;18.17;89.69;101585.97;4980031;28;20197;-80
2021/09/27 07:51:57;;;;;;;32.93;29.10;;;;;;;18.18;89.71;101577.31;5004260;28;20212;-78
2021/09/27 07:54:23;;;;;;;32.97;29.47;;;;;;;18.17;89.54;101580.78;4967981;28;20213;-79
2021/09/27 07:56:49;;;;;;;32.20;28.77;;;;;;;18.16;89.75;101596.31;4959099;28;20228;-80
2021/09/27 07:59:14;;;;;;;32.13;28.77;;;;;;;18.15;90.09;101594.59;5007466;28;20188;-80
2021/09/27 08:01:40;;;;;;;31.33;28.00;;;;;;;18.21;89.09;101589.41;4977779;28;20240;-78
2021/09/27 08:04:05;;;;;;;33.13;29.63;;;;;;;18.17;89.83;101587.69;4980160;28;20192;-80
2021/09/27 08:06:31;;;;;;;33.10;29.70;;;;;;;18.28;89.53;101583.38;5021861;28;20196;-81
2021/09/27 08:08:56;;;;;;;31.47;28.10;;;;;;;18.33;89.39;101581.69;4968390;28;20686;-79
2021/09/27 08:11:21;;;;;;;33.67;30.20;;;;;;;18.36;88.23;101584.25;4975965;28;20211;-77
2021/09/27 08:13:47;;;;;;;33.53;29.83;;;;;;;18.37;89.39;101586.00;4964689;28;20196;-79
2021/09/27 08:16:12;;;;;;;36.40;30.03;;;;;;;18.36;89.80;101592.03;4970278;28;20201;-78
2021/09/27 08:18:38;;;;;;;32.67;27.70;;;;;;;18.33;89.31;101586.88;4974077;28;20190;-81
2021/09/27 08:21:07;;;;;;;30.73;27.53;;;;;;;18.40;89.28;101598.94;4967729;28;20185;-78
2021/09/27 08:23:32;;;;;;;31.90;28.67;;;;;;;18.40;89.40;101588.56;5022167;28;20200;-79
2021/09/27 08:25:58;;;;;;;32.10;28.70;;;;;;;18.49;88.61;101594.63;4978733;28;20198;-78
2021/09/27 08:28:25;;;;;;;32.00;28.70;;;;;;;18.54;89.17;101592.03;4967995;28;20192;-78
2021/09/27 08:30:55;;;;;;;30.47;27.27;;;;;;;18.52;89.02;101580.78;4974875;28;20176;-80
2021/09/27 08:33:21;;;;;;;33.60;27.50;;;;;;;18.73;88.43;101583.34;4960348;28;20292;-80
2021/09/27 08:35:49;;;;;;;29.03;26.13;;;;;;;18.95;87.42;101579.84;4980310;28;20554;-78
2021/09/27 08:38:16;;;;;;;29.47;26.33;;;;;;;19.04;87.12;101580.69;4978498;28;20644;-80
2021/09/27 08:41:14;;;;;;;28.57;25.67;;;;;;;19.12;86.95;101591.03;4985887;28;20195;-78
2021/09/27 08:43:48;;;;;;;28.43;25.53;;;;;;;19.19;87.27;101584.94;4987226;28;20203;-80
2021/09/27 08:46:22;;;;;;;28.17;25.20;;;;;;;19.21;86.86;101588.41;4985107;28;20230;-81
2021/09/27 08:48:56;;;;;;;28.07;25.17;;;;;;;19.30;86.63;101581.47;4994575;28;20314;-80
2021/09/27 08:51:22;;;;;;;28.17;25.13;;;;;;;19.23;86.92;101594.47;4999853;28;20211;-80
2021/09/27 08:53:52;;;;;;;28.73;25.83;;;;;;;19.25;87.41;101595.34;5006190;28;20184;-79
2021/09/27 08:56:26;;;;;;;29.30;26.10;;;;;;;19.28;86.83;101592.72;5006909;28;20192;-79
2021/09/27 08:59:25;;;;;;;32.03;27.17;;;;;;;19.24;87.49;101597.09;5007946;28;20561;-78
2021/09/27 09:02:06;;;;;;;30.50;27.20;;;;;;;19.13;87.47;101598.84;5007070;28;20216;-81
2021/09/27 09:04:44;;;;;;;32.23;28.80;;;;;;;19.14;88.15;101604.88;4992276;28;20562;-80
2021/09/27 09:07:15;;;;;;;32.20;28.80;;;;;;;19.03;88.25;101599.69;4988712;28;20192;-78
2021/09/27 09:09:46;;;;;;;33.13;29.30;;;;;;;19.04;87.85;101591.06;4972428;28;20334;-79
2021/09/27 09:12:29;;;;;;;36.93;30.60;;;;;;;19.16;87.41;101592.75;4972580;28;20237;-80
2021/09/27 09:15:27;;;;;;;33.23;29.03;;;;;;;19.14;87.28;101597.06;4988056;28;20640;-78
2021/09/27 09:18:04;;;;;;;32.43;28.53;;;;;;;19.20;86.87;101592.72;4989259;28;20227;-80
2021/09/27 09:20:48;;;;;;;34.00;28.13;;;;;;;19.38;86.77;101584.91;4972355;28;20180;-80
2021/09/27 09:23:24;;;;;;;33.67;27.40;;;;;;;19.47;86.77;101595.25;4988509;28;20220;-79
2021/09/27 09:25:49;;;;;;;33.43;27.87;;;;;;;19.55;86.02;101585.69;4971791;28;20188;-78
2021/09/27 09:28:16;;;;;;;33.63;26.70;;;;;;;19.49;85.91;101595.25;4964977;28;20219;-80
2021/09/27 09:30:51;;;;;;;31.03;27.10;;;;;;;19.50;86.39;101590.06;5010628;28;20207;-79
2021/09/27 09:33:42;;;;;;;29.27;26.20;;;;;;;19.59;85.96;101584.81;4991276;28;20207;-78
2021/09/27 09:36:12;;;;;;;30.23;26.73;;;;;;;19.82;85.42;101590.72;4990968;28;20199;-80
2021/09/27 09:38:38;;;;;;;28.90;25.00;;;;;;;20.17;82.90;101593.97;4992452;28;20196;-79
2021/09/27 09:41:05;;;;;;;28.70;25.53;;;;;;;20.31;82.29;101588.66;4990737;28;20672;-78
2021/09/27 09:43:34;;;;;;;27.10;24.20;;;;;;;20.64;81.46;101586.59;5024155;28;20192;-79
2021/09/27 09:46:08;;;;;;;27.43;23.03;;;;;;;21.08;79.33;101580.97;4992679;28;20291;-79
2021/09/27 09:48:35;;;;;;;27.53;24.53;;;;;;;21.23;78.60;101586.84;4991489;28;20207;-78
2021/09/27 09:51:20;;;;;;;26.13;23.40;;;;;;;21.04;79.08;101581.88;4992419;28;20254;-78
2021/09/27 09:54:06;;;;;;;27.20;24.30;;;;;;;21.08;79.07;101579.22;4992727;28;20204;-80
2021/09/27 09:56:34;;;;;;;27.87;24.90;;;;;;;21.93;75.37;101565.94;4993225;28;20211;-79
2021/09/27 09:59:01;;;;;;;26.20;23.50;;;;;;;23.99;67.92;101562.75;4992381;28;20676;-81
2021/09/27 10:01:35;;;;;;;24.15;21.63;;;;;;;23.42;69.42;101555.34;4975463;28;20207;-80
2021/09/27 10:04:18;;;;;;;24.63;22.08;;;;;;;23.71;67.83;101558.19;4970993;28;20658;-79
2021/09/27 10:06:47;;;;;;;24.60;20.48;;;;;;;25.52;61.90;101542.84;4991202;28;20247;-82
2021/09/27 10:09:34;;;;;;;26.60;23.80;;;;;;;23.52;69.05;101562.13;4986906;28;20192;-79
2021/09/27 10:12:06;;;;;;;24.80;22.30;;;;;;;25.07;63.54;101545.94;5012470;28;20212;-80
2021/09/27 10:14:44;;;;;;;24.65;22.05;;;;;;;26.64;58.85;101540.00;4973999;28;20169;-80
2021/09/27 10:17:30;;;;;;;21.67;19.55;;;;;;;25.77;60.22;101537.66;5005144;28;20736;-80
2021/09/27 10:20:07;;;;;;;23.70;21.52;;;;;;;23.15;67.84;101550.69;4972698;28;20184;-81
2021/09/27 10:22:37;;;;;;;24.88;22.30;;;;;;;22.50;71.64;101540.63;4974701;28;20266;-79
2021/09/27 10:25:23;;;;;;;24.27;21.85;;;;;;;23.60;68.98;101539.25;5023565;28;20279;-79
2021/09/27 10:27:50;;;;;;;23.65;21.23;;;;;;;24.36;65.79;101537.38;4976790;28;20193;-80
2021/09/27 10:30:20;;;;;;;23.02;20.73;;;;;;;23.92;66.37;101540.25;4974262;28;20235;-79
2021/09/27 10:32:56;;;;;;;24.17;21.77;;;;;;;23.46;68.69;101542.19;5004989;28;20878;-79
2021/09/27 10:35:29;;;;;;;24.23;21.77;;;;;;;24.11;67.10;101546.75;5014190;28;20198;-78
2021/09/27 10:38:01;;;;;;;21.30;19.20;;;;;;;24.56;66.18;101532.50;5001940;28;20242;-79
2021/09/27 10:40:27;;;;;;;20.17;18.25;;;;;;;26.04;61.67;101529.81;4997626;28;20539;-80
2021/09/27 10:42:52;;;;;;;20.77;18.67;;;;;;;27.90;56.53;101528.13;4995550;28;20227;-81
2021/09/27 10:45:21;;;;;;;18.20;16.40;;;;;;;28.11;54.30;101514.09;5012384;28;20188;-79
2021/09/27 10:47:51;;;;;;;18.25;16.45;;;;;;;28.27;52.80;101516.94;4998507;28;20246;-80
2021/09/27 10:50:30;;;;;;;19.35;17.65;;;;;;;24.64;62.13;101527.91;5018203;28;20192;-79
2021/09/27 10:53:13;;;;;;;22.20;19.85;;;;;;;23.76;66.28;101535.41;5009238;28;20212;-78
2021/09/27 10:56:03;;;;;;;22.38;20.30;;;;;;;23.50;68.63;101528.16;5026101;28;20188;-79
2021/09/27 10:58:37;;;;;;;26.77;24.17;;;;;;;23.15;68.26;101530.63;5027011;28;20212;-79
2021/09/27 11:01:06;;;;;;;26.73;24.15;;;;;;;22.81;69.43;101539.16;5008772;28;20277;-81
2021/09/27 11:03:40;;;;;;;27.42;24.83;;;;;;;23.77;65.56;101530.13;4994665;28;20192;-80
2021/09/27 11:06:24;;;;;;;26.20;23.70;;;;;;;24.73;62.50;101517.19;4977016;28;20192;-79
2021/09/27 11:08:59;;;;;;;22.75;20.38;;;;;;;26.62;58.17;101500.63;5026645;28;20200;-79
2021/09/27 11:11:27;;;;;;;22.35;20.25;;;;;;;27.25;55.10;101500.91;4992801;28;20188;-79
2021/09/27 11:13:54;;;;;;;20.02;18.05;;;;;;;27.63;55.17;101505.53;5025836;28;20692;-79
2021/09/27 11:16:29;;;;;;;18.45;16.75;;;;;;;27.89;53.46;101502.72;4992561;28;20192;-78
2021/09/27 11:19:04;;;;;;;19.45;17.55;;;;;;;28.12;53.00;101496.50;5024724;28;20223;-80
2021/09/27 11:21:35;;;;;;;18.70;16.77;;;;;;;29.38;49.27;101493.44;5025452;28;20215;-79
2021/09/27 11:24:24;;;;;;;17.48;15.73;;;;;;;29.74;47.67;101495.16;4994490;28;20813;-78
2021/09/27 11:27:10;;;;;;;19.70;17.90;;;;;;;30.25;47.31;101493.50;4993394;28;20202;-79
2021/09/27 11:29:36;;;;;;;18.77;17.08;;;;;;;29.54;48.30;101487.34;5009793;28;20200;-79
2021/09/27 11:32:16;;;;;;;18.65;16.75;;;;;;;30.18;47.04;101487.69;5009204;28;20216;-79
2021/09/27 11:34:54;;;;;;;18.90;17.15;;;;;;;29.87;47.93;101484.84;4979017;28;20192;-79
2021/09/27 11:37:21;;;;;;;19.17;17.23;;;;;;;26.99;54.22;101497.53;4973424;28;20220;-78
2021/09/27 11:40:12;;;;;;;21.17;19.08;;;;;;;25.98;57.10;101502.91;4973750;28;20193;-78
2021/09/27 11:43:04;;;;;;;23.60;21.10;;;;;;;24.97;60.87;101495.53;4974040;28;20228;-78
2021/09/27 11:45:30;;;;;;;25.48;22.98;;;;;;;24.56;62.18;101506.28;4974854;28;20184;-78
2021/09/27 11:48:05;;;;;;;24.38;22.02;;;;;;;24.62;62.65;101502.66;4977570;28;20168;-78
2021/09/27 11:50:49;;;;;;;24.92;22.52;;;;;;;24.53;62.74;101500.25;4992980;28;20198;-78
2021/09/27 11:53:33;;;;;;;24.08;21.70;;;;;;;24.15;64.20;101497.78;4974802;28;20207;-79